sensor_id;sensor_type;location;lat;lon;timestamp;P1;durP1;ratioP1;P2;durP2;ratioP2
37495;SDS011;23346;52.088;4.746;2022-12-26T00:01:24;11.97;;;2.30;;
37495;SDS011;23346;52.088;4.746;2022-12-26T00:03:51;2.80;;;2.37;;
37495;SDS011;23346;52.088;4.746;2022-12-26T00:06:18;2.67;;;1.80;;
37495;SDS011;23346;52.088;4.746;2022-12-26T00:08:45;2.27;;;2.03;;
37495;SDS011;23346;52.088;4.746;2022-12-26T00:11:11;1.00;;;1.00;;
37495;SDS011;23346;52.088;4.746;2022-12-26T00:13:37;0.77;;;0.77;;
37495;SDS011;23346;52.088;4.746;2022-12-26T00:18:33;0.97;;;0.87;;
37495;SDS011;23346;52.088;4.746;2022-12-26T00:20:59;3.00;;;2.33;;
37495;SDS011;23346;52.088;4.746;2022-12-26T00:23:25;2.63;;;2.43;;
37495;SDS011;23346;52.088;4.746;2022-12-26T00:25:50;2.77;;;2.47;;
37495;SDS011;23346;52.088;4.746;2022-12-26T00:28:16;1.17;;;1.13;;
37495;SDS011;23346;52.088;4.746;2022-12-26T00:30:42;4.63;;;1.97;;
37495;SDS011;23346;52.088;4.746;2022-12-26T00:33:08;2.57;;;2.07;;
37495;SDS011;23346;52.088;4.746;2022-12-26T00:35:34;3.70;;;3.20;;
37495;SDS011;23346;52.088;4.746;2022-12-26T00:38:00;1.27;;;1.17;;
37495;SDS011;23346;52.088;4.746;2022-12-26T00:40:26;1.83;;;1.73;;
37495;SDS011;23346;52.088;4.746;2022-12-26T00:42:52;1.57;;;1.47;;
37495;SDS011;23346;52.088;4.746;2022-12-26T00:45:18;1.60;;;1.50;;
37495;SDS011;23346;52.088;4.746;2022-12-26T00:47:44;1.67;;;1.57;;
37495;SDS011;23346;52.088;4.746;2022-12-26T00:50:10;1.80;;;1.70;;
37495;SDS011;23346;52.088;4.746;2022-12-26T00:52:36;4.20;;;2.97;;
37495;SDS011;23346;52.088;4.746;2022-12-26T00:55:02;2.17;;;2.00;;
37495;SDS011;23346;52.088;4.746;2022-12-26T00:57:28;1.73;;;1.63;;
37495;SDS011;23346;52.088;4.746;2022-12-26T00:59:54;2.47;;;2.27;;
37495;SDS011;23346;52.088;4.746;2022-12-26T01:02:20;3.47;;;1.63;;
37495;SDS011;23346;52.088;4.746;2022-12-26T01:05:02;4.23;;;2.73;;
37495;SDS011;23346;52.088;4.746;2022-12-26T01:07:31;6.33;;;1.27;;
37495;SDS011;23346;52.088;4.746;2022-12-26T01:09:57;5.93;;;2.40;;
37495;SDS011;23346;52.088;4.746;2022-12-26T01:12:23;2.90;;;2.60;;
37495;SDS011;23346;52.088;4.746;2022-12-26T01:14:51;5.10;;;2.27;;
37495;SDS011;23346;52.088;4.746;2022-12-26T01:17:17;2.47;;;2.27;;
37495;SDS011;23346;52.088;4.746;2022-12-26T01:19:43;4.00;;;3.43;;
37495;SDS011;23346;52.088;4.746;2022-12-26T01:22:09;4.90;;;1.60;;
37495;SDS011;23346;52.088;4.746;2022-12-26T01:24:35;2.80;;;2.13;;
37495;SDS011;23346;52.088;4.746;2022-12-26T01:27:01;2.77;;;1.97;;
37495;SDS011;23346;52.088;4.746;2022-12-26T01:29:27;2.83;;;2.63;;
37495;SDS011;23346;52.088;4.746;2022-12-26T01:31:53;6.10;;;1.40;;
37495;SDS011;23346;52.088;4.746;2022-12-26T01:34:19;3.07;;;2.83;;
37495;SDS011;23346;52.088;4.746;2022-12-26T01:36:45;5.70;;;2.07;;
37495;SDS011;23346;52.088;4.746;2022-12-26T01:39:11;4.00;;;3.10;;
37495;SDS011;23346;52.088;4.746;2022-12-26T01:41:37;0.90;;;0.90;;
37495;SDS011;23346;52.088;4.746;2022-12-26T01:44:05;2.57;;;1.93;;
37495;SDS011;23346;52.088;4.746;2022-12-26T01:46:41;3.53;;;2.50;;
37495;SDS011;23346;52.088;4.746;2022-12-26T01:49:12;7.30;;;1.87;;
37495;SDS011;23346;52.088;4.746;2022-12-26T01:51:40;1.60;;;1.50;;
37495;SDS011;23346;52.088;4.746;2022-12-26T01:54:08;0.53;;;0.53;;
37495;SDS011;23346;52.088;4.746;2022-12-26T01:56:35;1.57;;;1.43;;
37495;SDS011;23346;52.088;4.746;2022-12-26T01:59:07;2.40;;;2.27;;
37495;SDS011;23346;52.088;4.746;2022-12-26T02:01:34;4.73;;;2.87;;
37495;SDS011;23346;52.088;4.746;2022-12-26T02:04:04;2.00;;;1.83;;
37495;SDS011;23346;52.088;4.746;2022-12-26T02:06:50;4.33;;;2.50;;
37495;SDS011;23346;52.088;4.746;2022-12-26T02:09:16;1.23;;;1.20;;
37495;SDS011;23346;52.088;4.746;2022-12-26T02:11:43;4.50;;;3.13;;
37495;SDS011;23346;52.088;4.746;2022-12-26T02:14:10;1.37;;;1.13;;
37495;SDS011;23346;52.088;4.746;2022-12-26T02:16:38;2.87;;;2.07;;
37495;SDS011;23346;52.088;4.746;2022-12-26T02:19:05;1.80;;;1.67;;
37495;SDS011;23346;52.088;4.746;2022-12-26T02:34:01;1.17;;;1.17;;
37495;SDS011;23346;52.088;4.746;2022-12-26T02:42:09;0.20;;;0.20;;
37495;SDS011;23346;52.088;4.746;2022-12-26T02:44:46;1.00;;;1.00;;
37495;SDS011;23346;52.088;4.746;2022-12-26T02:53:53;2.93;;;2.67;;
37495;SDS011;23346;52.088;4.746;2022-12-26T02:56:42;0.97;;;0.80;;
37495;SDS011;23346;52.088;4.746;2022-12-26T03:02:29;1.87;;;1.77;;
37495;SDS011;23346;52.088;4.746;2022-12-26T03:08:29;1.10;;;1.10;;
37495;SDS011;23346;52.088;4.746;2022-12-26T03:11:15;0.60;;;0.60;;
37495;SDS011;23346;52.088;4.746;2022-12-26T03:14:34;2.03;;;1.83;;
37495;SDS011;23346;52.088;4.746;2022-12-26T03:16:54;2.07;;;1.97;;
37495;SDS011;23346;52.088;4.746;2022-12-26T03:19:40;1.53;;;1.43;;
37495;SDS011;23346;52.088;4.746;2022-12-26T03:22:22;3.37;;;1.43;;
37495;SDS011;23346;52.088;4.746;2022-12-26T03:24:54;1.80;;;1.70;;
37495;SDS011;23346;52.088;4.746;2022-12-26T03:27:40;1.27;;;0.90;;
37495;SDS011;23346;52.088;4.746;2022-12-26T03:30:06;2.17;;;2.00;;
37495;SDS011;23346;52.088;4.746;2022-12-26T03:32:51;1.23;;;1.23;;
37495;SDS011;23346;52.088;4.746;2022-12-26T03:35:17;1.13;;;1.13;;
37495;SDS011;23346;52.088;4.746;2022-12-26T03:37:49;7.37;;;2.77;;
37495;SDS011;23346;52.088;4.746;2022-12-26T03:41:20;2.77;;;1.83;;
37495;SDS011;23346;52.088;4.746;2022-12-26T03:46:26;1.40;;;1.30;;
37495;SDS011;23346;52.088;4.746;2022-12-26T03:49:19;0.87;;;0.87;;
37495;SDS011;23346;52.088;4.746;2022-12-26T03:54:52;0.47;;;0.47;;
37495;SDS011;23346;52.088;4.746;2022-12-26T03:57:40;5.30;;;2.03;;
37495;SDS011;23346;52.088;4.746;2022-12-26T04:00:29;0.87;;;0.87;;
37495;SDS011;23346;52.088;4.746;2022-12-26T04:03:14;2.30;;;1.80;;
37495;SDS011;23346;52.088;4.746;2022-12-26T04:06:00;0.70;;;0.70;;
37495;SDS011;23346;52.088;4.746;2022-12-26T04:08:52;2.23;;;2.13;;
37495;SDS011;23346;52.088;4.746;2022-12-26T04:11:37;1.30;;;1.20;;
37495;SDS011;23346;52.088;4.746;2022-12-26T04:14:30;0.83;;;0.83;;
37495;SDS011;23346;52.088;4.746;2022-12-26T04:17:27;0.53;;;0.53;;
37495;SDS011;23346;52.088;4.746;2022-12-26T04:20:28;1.23;;;1.03;;
37495;SDS011;23346;52.088;4.746;2022-12-26T04:23:05;0.70;;;0.70;;
37495;SDS011;23346;52.088;4.746;2022-12-26T04:28:43;0.77;;;0.77;;
37495;SDS011;23346;52.088;4.746;2022-12-26T04:31:32;0.97;;;0.97;;
37495;SDS011;23346;52.088;4.746;2022-12-26T04:34:21;0.67;;;0.40;;
37495;SDS011;23346;52.088;4.746;2022-12-26T04:37:09;0.90;;;0.90;;
37495;SDS011;23346;52.088;4.746;2022-12-26T04:39:57;3.50;;;1.67;;
37495;SDS011;23346;52.088;4.746;2022-12-26T04:42:43;0.87;;;0.87;;
37495;SDS011;23346;52.088;4.746;2022-12-26T04:45:28;3.40;;;0.90;;
37495;SDS011;23346;52.088;4.746;2022-12-26T04:47:54;0.23;;;0.23;;
37495;SDS011;23346;52.088;4.746;2022-12-26T04:50:49;0.20;;;0.20;;
37495;SDS011;23346;52.088;4.746;2022-12-26T04:53:15;0.50;;;0.50;;
37495;SDS011;23346;52.088;4.746;2022-12-26T04:55:41;0.33;;;0.33;;
37495;SDS011;23346;52.088;4.746;2022-12-26T04:58:07;1.00;;;1.00;;
37495;SDS011;23346;52.088;4.746;2022-12-26T05:00:33;0.10;;;0.10;;
37495;SDS011;23346;52.088;4.746;2022-12-26T05:02:59;1.60;;;1.13;;
37495;SDS011;23346;52.088;4.746;2022-12-26T05:05:45;0.60;;;0.50;;
37495;SDS011;23346;52.088;4.746;2022-12-26T05:08:37;0.00;;;0.00;;
37495;SDS011;23346;52.088;4.746;2022-12-26T05:11:23;0.47;;;0.47;;
37495;SDS011;23346;52.088;4.746;2022-12-26T05:13:53;1.70;;;1.50;;
37495;SDS011;23346;52.088;4.746;2022-12-26T05:16:19;3.73;;;2.63;;
37495;SDS011;23346;52.088;4.746;2022-12-26T05:19:04;0.40;;;0.40;;
37495;SDS011;23346;52.088;4.746;2022-12-26T05:21:49;0.10;;;0.10;;
37495;SDS011;23346;52.088;4.746;2022-12-26T05:24:36;6.87;;;0.87;;
37495;SDS011;23346;52.088;4.746;2022-12-26T05:27:27;1.90;;;0.70;;
37495;SDS011;23346;52.088;4.746;2022-12-26T05:30:16;0.57;;;0.57;;
37495;SDS011;23346;52.088;4.746;2022-12-26T05:32:42;1.13;;;0.70;;
37495;SDS011;23346;52.088;4.746;2022-12-26T05:35:26;1.10;;;0.57;;
37495;SDS011;23346;52.088;4.746;2022-12-26T05:37:53;0.67;;;0.67;;
37495;SDS011;23346;52.088;4.746;2022-12-26T05:40:19;0.97;;;0.80;;
37495;SDS011;23346;52.088;4.746;2022-12-26T05:42:45;0.50;;;0.40;;
37495;SDS011;23346;52.088;4.746;2022-12-26T05:45:11;0.43;;;0.43;;
37495;SDS011;23346;52.088;4.746;2022-12-26T05:47:37;1.30;;;1.20;;
37495;SDS011;23346;52.088;4.746;2022-12-26T05:50:03;0.40;;;0.37;;
37495;SDS011;23346;52.088;4.746;2022-12-26T05:52:29;0.90;;;0.53;;
37495;SDS011;23346;52.088;4.746;2022-12-26T05:54:55;1.23;;;1.13;;
37495;SDS011;23346;52.088;4.746;2022-12-26T05:57:21;0.40;;;0.40;;
37495;SDS011;23346;52.088;4.746;2022-12-26T05:59:47;15.40;;;1.33;;
37495;SDS011;23346;52.088;4.746;2022-12-26T06:02:13;0.10;;;0.10;;
37495;SDS011;23346;52.088;4.746;2022-12-26T06:04:39;0.70;;;0.70;;
37495;SDS011;23346;52.088;4.746;2022-12-26T06:07:05;1.37;;;1.07;;
37495;SDS011;23346;52.088;4.746;2022-12-26T06:09:31;0.30;;;0.30;;
37495;SDS011;23346;52.088;4.746;2022-12-26T06:11:57;0.00;;;0.00;;
37495;SDS011;23346;52.088;4.746;2022-12-26T06:14:23;1.13;;;1.03;;
37495;SDS011;23346;52.088;4.746;2022-12-26T06:16:49;0.63;;;0.63;;
37495;SDS011;23346;52.088;4.746;2022-12-26T06:19:15;1.13;;;1.00;;
37495;SDS011;23346;52.088;4.746;2022-12-26T06:21:41;2.00;;;1.03;;
37495;SDS011;23346;52.088;4.746;2022-12-26T06:24:07;1.53;;;1.40;;
37495;SDS011;23346;52.088;4.746;2022-12-26T06:26:33;0.13;;;0.13;;
37495;SDS011;23346;52.088;4.746;2022-12-26T06:28:59;0.00;;;0.00;;
37495;SDS011;23346;52.088;4.746;2022-12-26T06:31:25;0.30;;;0.30;;
37495;SDS011;23346;52.088;4.746;2022-12-26T06:33:55;0.80;;;0.60;;
37495;SDS011;23346;52.088;4.746;2022-12-26T06:36:23;0.93;;;0.47;;
37495;SDS011;23346;52.088;4.746;2022-12-26T06:38:49;0.33;;;0.33;;
37495;SDS011;23346;52.088;4.746;2022-12-26T06:41:16;0.30;;;0.30;;
37495;SDS011;23346;52.088;4.746;2022-12-26T06:43:42;0.90;;;0.63;;
37495;SDS011;23346;52.088;4.746;2022-12-26T06:46:09;0.10;;;0.10;;
37495;SDS011;23346;52.088;4.746;2022-12-26T06:48:36;0.23;;;0.23;;
37495;SDS011;23346;52.088;4.746;2022-12-26T06:51:06;0.00;;;0.00;;
37495;SDS011;23346;52.088;4.746;2022-12-26T06:53:32;0.13;;;0.13;;
37495;SDS011;23346;52.088;4.746;2022-12-26T06:56:15;11.97;;;5.93;;
37495;SDS011;23346;52.088;4.746;2022-12-26T06:58:41;44.70;;;29.07;;
37495;SDS011;23346;52.088;4.746;2022-12-26T07:01:08;34.70;;;29.27;;
37495;SDS011;23346;52.088;4.746;2022-12-26T07:03:34;0.57;;;0.50;;
37495;SDS011;23346;52.088;4.746;2022-12-26T07:06:01;0.10;;;0.10;;
37495;SDS011;23346;52.088;4.746;2022-12-26T07:08:28;0.27;;;0.27;;
37495;SDS011;23346;52.088;4.746;2022-12-26T07:10:54;0.70;;;0.37;;
37495;SDS011;23346;52.088;4.746;2022-12-26T07:13:20;0.00;;;0.00;;
37495;SDS011;23346;52.088;4.746;2022-12-26T07:15:46;0.73;;;0.73;;
37495;SDS011;23346;52.088;4.746;2022-12-26T07:18:12;0.10;;;0.10;;
37495;SDS011;23346;52.088;4.746;2022-12-26T07:20:38;0.30;;;0.30;;
37495;SDS011;23346;52.088;4.746;2022-12-26T07:23:03;0.10;;;0.10;;
37495;SDS011;23346;52.088;4.746;2022-12-26T07:25:29;5.20;;;1.50;;
37495;SDS011;23346;52.088;4.746;2022-12-26T07:27:55;0.03;;;0.03;;
37495;SDS011;23346;52.088;4.746;2022-12-26T07:30:22;0.40;;;0.40;;
37495;SDS011;23346;52.088;4.746;2022-12-26T07:32:48;0.10;;;0.10;;
37495;SDS011;23346;52.088;4.746;2022-12-26T07:35:14;2.53;;;0.30;;
37495;SDS011;23346;52.088;4.746;2022-12-26T07:37:40;1.40;;;0.53;;
37495;SDS011;23346;52.088;4.746;2022-12-26T07:40:06;0.13;;;0.13;;
37495;SDS011;23346;52.088;4.746;2022-12-26T07:42:32;0.53;;;0.40;;
37495;SDS011;23346;52.088;4.746;2022-12-26T07:44:58;0.37;;;0.37;;
37495;SDS011;23346;52.088;4.746;2022-12-26T07:47:24;0.10;;;0.10;;
37495;SDS011;23346;52.088;4.746;2022-12-26T07:49:50;0.90;;;0.87;;
37495;SDS011;23346;52.088;4.746;2022-12-26T07:52:16;0.20;;;0.20;;
37495;SDS011;23346;52.088;4.746;2022-12-26T07:54:43;0.10;;;0.10;;
37495;SDS011;23346;52.088;4.746;2022-12-26T07:57:10;0.53;;;0.53;;
37495;SDS011;23346;52.088;4.746;2022-12-26T07:59:36;0.43;;;0.43;;
37495;SDS011;23346;52.088;4.746;2022-12-26T08:02:02;0.57;;;0.30;;
37495;SDS011;23346;52.088;4.746;2022-12-26T08:04:29;0.23;;;0.23;;
37495;SDS011;23346;52.088;4.746;2022-12-26T08:06:55;0.43;;;0.43;;
37495;SDS011;23346;52.088;4.746;2022-12-26T08:09:21;0.10;;;0.10;;
37495;SDS011;23346;52.088;4.746;2022-12-26T08:11:47;13.97;;;3.03;;
37495;SDS011;23346;52.088;4.746;2022-12-26T08:14:13;0.30;;;0.30;;
37495;SDS011;23346;52.088;4.746;2022-12-26T08:16:42;0.37;;;0.37;;
37495;SDS011;23346;52.088;4.746;2022-12-26T08:19:09;0.67;;;0.67;;
37495;SDS011;23346;52.088;4.746;2022-12-26T08:21:35;0.23;;;0.23;;
37495;SDS011;23346;52.088;4.746;2022-12-26T08:24:01;0.17;;;0.17;;
37495;SDS011;23346;52.088;4.746;2022-12-26T08:26:27;0.50;;;0.50;;
37495;SDS011;23346;52.088;4.746;2022-12-26T08:28:55;0.30;;;0.30;;
37495;SDS011;23346;52.088;4.746;2022-12-26T08:31:21;0.17;;;0.17;;
37495;SDS011;23346;52.088;4.746;2022-12-26T08:33:48;0.10;;;0.10;;
37495;SDS011;23346;52.088;4.746;2022-12-26T08:36:14;0.13;;;0.13;;
37495;SDS011;23346;52.088;4.746;2022-12-26T08:38:43;0.53;;;0.53;;
37495;SDS011;23346;52.088;4.746;2022-12-26T08:41:09;0.37;;;0.37;;
37495;SDS011;23346;52.088;4.746;2022-12-26T08:43:36;0.37;;;0.37;;
37495;SDS011;23346;52.088;4.746;2022-12-26T08:46:06;0.27;;;0.27;;
37495;SDS011;23346;52.088;4.746;2022-12-26T08:48:32;0.63;;;0.57;;
37495;SDS011;23346;52.088;4.746;2022-12-26T08:51:01;0.83;;;0.20;;
37495;SDS011;23346;52.088;4.746;2022-12-26T08:53:28;0.10;;;0.10;;
37495;SDS011;23346;52.088;4.746;2022-12-26T08:55:54;0.10;;;0.10;;
37495;SDS011;23346;52.088;4.746;2022-12-26T08:58:21;0.10;;;0.10;;
37495;SDS011;23346;52.088;4.746;2022-12-26T09:00:47;0.00;;;0.00;;
37495;SDS011;23346;52.088;4.746;2022-12-26T09:03:13;0.00;;;0.00;;
37495;SDS011;23346;52.088;4.746;2022-12-26T09:05:39;0.10;;;0.10;;
37495;SDS011;23346;52.088;4.746;2022-12-26T09:08:05;0.10;;;0.10;;
37495;SDS011;23346;52.088;4.746;2022-12-26T09:10:32;6.70;;;2.30;;
37495;SDS011;23346;52.088;4.746;2022-12-26T09:12:58;0.50;;;0.47;;
37495;SDS011;23346;52.088;4.746;2022-12-26T09:15:24;0.20;;;0.20;;
37495;SDS011;23346;52.088;4.746;2022-12-26T09:17:50;0.20;;;0.20;;
37495;SDS011;23346;52.088;4.746;2022-12-26T09:20:16;0.30;;;0.30;;
37495;SDS011;23346;52.088;4.746;2022-12-26T09:22:42;0.20;;;0.20;;
37495;SDS011;23346;52.088;4.746;2022-12-26T09:25:20;0.97;;;0.97;;
37495;SDS011;23346;52.088;4.746;2022-12-26T09:27:47;0.20;;;0.20;;
37495;SDS011;23346;52.088;4.746;2022-12-26T09:30:14;0.27;;;0.27;;
37495;SDS011;23346;52.088;4.746;2022-12-26T09:32:40;0.63;;;0.63;;
37495;SDS011;23346;52.088;4.746;2022-12-26T09:35:06;0.10;;;0.10;;
37495;SDS011;23346;52.088;4.746;2022-12-26T09:37:32;0.10;;;0.10;;
37495;SDS011;23346;52.088;4.746;2022-12-26T09:39:58;1.30;;;1.17;;
37495;SDS011;23346;52.088;4.746;2022-12-26T09:42:28;0.40;;;0.40;;
37495;SDS011;23346;52.088;4.746;2022-12-26T09:47:33;0.10;;;0.10;;
37495;SDS011;23346;52.088;4.746;2022-12-26T09:50:02;0.20;;;0.20;;
37495;SDS011;23346;52.088;4.746;2022-12-26T09:54:57;0.20;;;0.20;;
37495;SDS011;23346;52.088;4.746;2022-12-26T09:57:37;0.20;;;0.20;;
37495;SDS011;23346;52.088;4.746;2022-12-26T10:00:04;0.20;;;0.20;;
37495;SDS011;23346;52.088;4.746;2022-12-26T10:02:31;0.17;;;0.17;;
37495;SDS011;23346;52.088;4.746;2022-12-26T10:04:58;0.20;;;0.20;;
37495;SDS011;23346;52.088;4.746;2022-12-26T10:09:58;1.03;;;0.87;;
37495;SDS011;23346;52.088;4.746;2022-12-26T10:20:04;0.20;;;0.20;;
37495;SDS011;23346;52.088;4.746;2022-12-26T10:25:12;0.20;;;0.20;;
37495;SDS011;23346;52.088;4.746;2022-12-26T10:27:39;0.20;;;0.20;;
37495;SDS011;23346;52.088;4.746;2022-12-26T10:30:06;0.20;;;0.20;;
37495;SDS011;23346;52.088;4.746;2022-12-26T10:32:40;0.57;;;0.57;;
37495;SDS011;23346;52.088;4.746;2022-12-26T10:35:13;0.30;;;0.30;;
37495;SDS011;23346;52.088;4.746;2022-12-26T10:37:43;0.30;;;0.30;;
37495;SDS011;23346;52.088;4.746;2022-12-26T10:40:21;0.20;;;0.20;;
37495;SDS011;23346;52.088;4.746;2022-12-26T10:42:51;0.20;;;0.20;;
37495;SDS011;23346;52.088;4.746;2022-12-26T10:47:52;0.23;;;0.23;;
37495;SDS011;23346;52.088;4.746;2022-12-26T10:50:29;0.20;;;0.20;;
37495;SDS011;23346;52.088;4.746;2022-12-26T10:52:56;0.40;;;0.40;;
37495;SDS011;23346;52.088;4.746;2022-12-26T10:55:25;0.30;;;0.30;;
37495;SDS011;23346;52.088;4.746;2022-12-26T10:57:52;0.20;;;0.20;;
37495;SDS011;23346;52.088;4.746;2022-12-26T11:00:20;2.13;;;1.07;;
37495;SDS011;23346;52.088;4.746;2022-12-26T11:05:27;0.20;;;0.20;;
37495;SDS011;23346;52.088;4.746;2022-12-26T11:07:54;0.20;;;0.20;;
37495;SDS011;23346;52.088;4.746;2022-12-26T11:10:23;2.03;;;0.67;;
37495;SDS011;23346;52.088;4.746;2022-12-26T11:12:58;0.30;;;0.30;;
37495;SDS011;23346;52.088;4.746;2022-12-26T11:15:33;0.30;;;0.30;;
37495;SDS011;23346;52.088;4.746;2022-12-26T11:18:33;2.87;;;2.47;;
37495;SDS011;23346;52.088;4.746;2022-12-26T11:20:51;0.30;;;0.30;;
37495;SDS011;23346;52.088;4.746;2022-12-26T11:23:20;0.30;;;0.30;;
37495;SDS011;23346;52.088;4.746;2022-12-26T11:25:47;0.40;;;0.40;;
37495;SDS011;23346;52.088;4.746;2022-12-26T11:28:24;0.30;;;0.30;;
37495;SDS011;23346;52.088;4.746;2022-12-26T11:30:50;0.30;;;0.30;;
37495;SDS011;23346;52.088;4.746;2022-12-26T11:33:20;0.30;;;0.30;;
37495;SDS011;23346;52.088;4.746;2022-12-26T11:35:59;0.30;;;0.30;;
37495;SDS011;23346;52.088;4.746;2022-12-26T11:38:27;0.20;;;0.20;;
37495;SDS011;23346;52.088;4.746;2022-12-26T11:41:03;0.70;;;0.70;;
37495;SDS011;23346;52.088;4.746;2022-12-26T11:43:48;6.67;;;1.10;;
37495;SDS011;23346;52.088;4.746;2022-12-26T11:46:15;0.30;;;0.30;;
37495;SDS011;23346;52.088;4.746;2022-12-26T11:48:45;0.27;;;0.27;;
37495;SDS011;23346;52.088;4.746;2022-12-26T11:51:12;0.30;;;0.30;;
37495;SDS011;23346;52.088;4.746;2022-12-26T11:53:38;0.30;;;0.30;;
37495;SDS011;23346;52.088;4.746;2022-12-26T11:56:05;0.50;;;0.50;;
37495;SDS011;23346;52.088;4.746;2022-12-26T11:58:32;0.30;;;0.30;;
37495;SDS011;23346;52.088;4.746;2022-12-26T12:03:33;0.30;;;0.30;;
37495;SDS011;23346;52.088;4.746;2022-12-26T12:08:51;0.20;;;0.20;;
37495;SDS011;23346;52.088;4.746;2022-12-26T12:27:18;0.20;;;0.20;;
37495;SDS011;23346;52.088;4.746;2022-12-26T12:32:16;0.53;;;0.53;;
37495;SDS011;23346;52.088;4.746;2022-12-26T12:39:38;1.20;;;1.13;;
37495;SDS011;23346;52.088;4.746;2022-12-26T12:42:18;0.20;;;0.20;;
37495;SDS011;23346;52.088;4.746;2022-12-26T12:45:13;0.30;;;0.30;;
37495;SDS011;23346;52.088;4.746;2022-12-26T12:48:00;0.20;;;0.20;;
37495;SDS011;23346;52.088;4.746;2022-12-26T12:50:31;0.33;;;0.33;;
37495;SDS011;23346;52.088;4.746;2022-12-26T12:53:11;0.50;;;0.50;;
37495;SDS011;23346;52.088;4.746;2022-12-26T12:58:19;0.30;;;0.30;;
37495;SDS011;23346;52.088;4.746;2022-12-26T13:00:51;0.40;;;0.40;;
37495;SDS011;23346;52.088;4.746;2022-12-26T13:03:26;0.20;;;0.20;;
37495;SDS011;23346;52.088;4.746;2022-12-26T13:10:54;0.23;;;0.23;;
37495;SDS011;23346;52.088;4.746;2022-12-26T13:13:30;0.30;;;0.30;;
37495;SDS011;23346;52.088;4.746;2022-12-26T13:16:20;0.30;;;0.30;;
37495;SDS011;23346;52.088;4.746;2022-12-26T13:18:49;0.30;;;0.30;;
37495;SDS011;23346;52.088;4.746;2022-12-26T13:21:16;0.30;;;0.30;;
37495;SDS011;23346;52.088;4.746;2022-12-26T13:23:44;0.20;;;0.20;;
37495;SDS011;23346;52.088;4.746;2022-12-26T13:26:32;0.50;;;0.50;;
37495;SDS011;23346;52.088;4.746;2022-12-26T13:31:27;0.30;;;0.30;;
37495;SDS011;23346;52.088;4.746;2022-12-26T13:33:56;0.30;;;0.30;;
37495;SDS011;23346;52.088;4.746;2022-12-26T13:36:33;0.30;;;0.30;;
37495;SDS011;23346;52.088;4.746;2022-12-26T13:41:28;0.23;;;0.23;;
37495;SDS011;23346;52.088;4.746;2022-12-26T13:52:45;0.23;;;0.23;;
37495;SDS011;23346;52.088;4.746;2022-12-26T13:59:41;0.70;;;0.70;;
37495;SDS011;23346;52.088;4.746;2022-12-26T14:04:55;0.30;;;0.30;;
37495;SDS011;23346;52.088;4.746;2022-12-26T14:07:29;0.40;;;0.40;;
37495;SDS011;23346;52.088;4.746;2022-12-26T14:10:03;0.20;;;0.20;;
37495;SDS011;23346;52.088;4.746;2022-12-26T14:12:41;0.30;;;0.30;;
37495;SDS011;23346;52.088;4.746;2022-12-26T14:15:29;1.33;;;1.23;;
37495;SDS011;23346;52.088;4.746;2022-12-26T14:20:47;0.20;;;0.20;;
37495;SDS011;23346;52.088;4.746;2022-12-26T14:23:21;0.30;;;0.30;;
37495;SDS011;23346;52.088;4.746;2022-12-26T14:26:04;0.27;;;0.27;;
37495;SDS011;23346;52.088;4.746;2022-12-26T14:28:44;0.30;;;0.30;;
37495;SDS011;23346;52.088;4.746;2022-12-26T14:36:14;0.30;;;0.30;;
37495;SDS011;23346;52.088;4.746;2022-12-26T14:41:14;6.50;;;1.23;;
37495;SDS011;23346;52.088;4.746;2022-12-26T14:44:15;0.30;;;0.30;;
37495;SDS011;23346;52.088;4.746;2022-12-26T14:49:19;0.40;;;0.40;;
37495;SDS011;23346;52.088;4.746;2022-12-26T14:51:46;0.40;;;0.40;;
37495;SDS011;23346;52.088;4.746;2022-12-26T14:56:40;0.40;;;0.40;;
37495;SDS011;23346;52.088;4.746;2022-12-26T14:59:26;0.33;;;0.33;;
37495;SDS011;23346;52.088;4.746;2022-12-26T15:10:07;0.40;;;0.40;;
37495;SDS011;23346;52.088;4.746;2022-12-26T15:39:02;19.27;;;2.50;;
37495;SDS011;23346;52.088;4.746;2022-12-26T15:44:17;10.33;;;1.83;;
37495;SDS011;23346;52.088;4.746;2022-12-26T15:46:51;11.83;;;1.77;;
37495;SDS011;23346;52.088;4.746;2022-12-26T15:49:39;15.17;;;2.03;;
37495;SDS011;23346;52.088;4.746;2022-12-26T15:52:19;11.40;;;1.93;;
37495;SDS011;23346;52.088;4.746;2022-12-26T15:54:59;15.93;;;1.87;;
37495;SDS011;23346;52.088;4.746;2022-12-26T16:00:06;13.00;;;4.40;;
37495;SDS011;23346;52.088;4.746;2022-12-26T16:05:49;17.13;;;5.13;;
37495;SDS011;23346;52.088;4.746;2022-12-26T16:08:15;19.37;;;7.20;;
37495;SDS011;23346;52.088;4.746;2022-12-26T16:10:35;15.67;;;5.67;;
37495;SDS011;23346;52.088;4.746;2022-12-26T16:15:27;14.10;;;4.00;;
37495;SDS011;23346;52.088;4.746;2022-12-26T16:17:54;16.50;;;4.00;;
37495;SDS011;23346;52.088;4.746;2022-12-26T16:20:36;22.27;;;5.43;;
37495;SDS011;23346;52.088;4.746;2022-12-26T16:23:22;19.27;;;8.70;;
37495;SDS011;23346;52.088;4.746;2022-12-26T16:25:49;22.63;;;6.33;;
37495;SDS011;23346;52.088;4.746;2022-12-26T16:28:18;16.10;;;4.77;;
37495;SDS011;23346;52.088;4.746;2022-12-26T16:30:47;14.30;;;6.43;;
37495;SDS011;23346;52.088;4.746;2022-12-26T16:33:13;20.90;;;6.23;;
37495;SDS011;23346;52.088;4.746;2022-12-26T16:35:39;34.13;;;9.40;;
37495;SDS011;23346;52.088;4.746;2022-12-26T16:38:09;17.83;;;7.27;;
37495;SDS011;23346;52.088;4.746;2022-12-26T16:40:44;19.40;;;6.00;;
37495;SDS011;23346;52.088;4.746;2022-12-26T16:45:43;16.43;;;5.90;;
37495;SDS011;23346;52.088;4.746;2022-12-26T16:48:10;18.37;;;6.13;;
37495;SDS011;23346;52.088;4.746;2022-12-26T16:50:51;25.33;;;7.20;;
37495;SDS011;23346;52.088;4.746;2022-12-26T16:53:20;22.50;;;7.63;;
37495;SDS011;23346;52.088;4.746;2022-12-26T16:55:50;30.17;;;8.43;;
37495;SDS011;23346;52.088;4.746;2022-12-26T17:00:53;20.17;;;5.80;;
37495;SDS011;23346;52.088;4.746;2022-12-26T17:03:26;20.07;;;5.17;;
37495;SDS011;23346;52.088;4.746;2022-12-26T17:05:53;17.90;;;4.77;;
37495;SDS011;23346;52.088;4.746;2022-12-26T17:08:19;17.80;;;5.17;;
37495;SDS011;23346;52.088;4.746;2022-12-26T17:10:46;21.37;;;6.30;;
37495;SDS011;23346;52.088;4.746;2022-12-26T17:13:13;17.43;;;5.90;;
37495;SDS011;23346;52.088;4.746;2022-12-26T17:15:46;10.63;;;4.97;;
37495;SDS011;23346;52.088;4.746;2022-12-26T17:21:43;25.60;;;6.03;;
37495;SDS011;23346;52.088;4.746;2022-12-26T17:23:44;17.70;;;3.97;;
37495;SDS011;23346;52.088;4.746;2022-12-26T17:26:15;22.53;;;4.67;;
37495;SDS011;23346;52.088;4.746;2022-12-26T17:28:41;15.33;;;5.97;;
37495;SDS011;23346;52.088;4.746;2022-12-26T17:31:29;12.03;;;4.10;;
37495;SDS011;23346;52.088;4.746;2022-12-26T17:33:56;17.10;;;4.97;;
37495;SDS011;23346;52.088;4.746;2022-12-26T17:36:24;18.97;;;6.33;;
37495;SDS011;23346;52.088;4.746;2022-12-26T17:38:51;13.13;;;5.30;;
37495;SDS011;23346;52.088;4.746;2022-12-26T17:41:17;19.03;;;4.97;;
37495;SDS011;23346;52.088;4.746;2022-12-26T17:43:43;13.67;;;4.90;;
37495;SDS011;23346;52.088;4.746;2022-12-26T17:46:11;11.77;;;3.27;;
37495;SDS011;23346;52.088;4.746;2022-12-26T17:48:37;16.43;;;4.53;;
37495;SDS011;23346;52.088;4.746;2022-12-26T17:51:05;14.10;;;3.10;;
37495;SDS011;23346;52.088;4.746;2022-12-26T17:55:59;25.77;;;5.73;;
37495;SDS011;23346;52.088;4.746;2022-12-26T17:58:26;14.17;;;3.70;;
37495;SDS011;23346;52.088;4.746;2022-12-26T18:00:52;11.07;;;4.10;;
37495;SDS011;23346;52.088;4.746;2022-12-26T18:03:19;12.67;;;3.83;;
37495;SDS011;23346;52.088;4.746;2022-12-26T18:05:45;5.90;;;3.13;;
37495;SDS011;23346;52.088;4.746;2022-12-26T18:08:31;9.27;;;3.60;;
37495;SDS011;23346;52.088;4.746;2022-12-26T18:10:57;19.20;;;3.93;;
37495;SDS011;23346;52.088;4.746;2022-12-26T18:13:24;6.67;;;3.37;;
37495;SDS011;23346;52.088;4.746;2022-12-26T18:15:50;15.93;;;3.87;;
37495;SDS011;23346;52.088;4.746;2022-12-26T18:18:26;14.77;;;3.87;;
37495;SDS011;23346;52.088;4.746;2022-12-26T18:20:53;13.43;;;3.90;;
37495;SDS011;23346;52.088;4.746;2022-12-26T18:23:19;12.33;;;3.50;;